sensor_id;sensor_type;location;lat;lon;timestamp;P1;durP1;ratioP1;P2;durP2;ratioP2
4311;SDS011;2169;49.086;9.284;2022-08-01T00:01:09;2.50;;;1.00;;
4311;SDS011;2169;49.086;9.284;2022-08-01T00:03:37;1.83;;;1.67;;
4311;SDS011;2169;49.086;9.284;2022-08-01T00:06:06;2.50;;;2.30;;
4311;SDS011;2169;49.086;9.284;2022-08-01T00:08:32;1.70;;;1.60;;
4311;SDS011;2169;49.086;9.284;2022-08-01T00:10:59;1.57;;;1.40;;
4311;SDS011;2169;49.086;9.284;2022-08-01T00:13:26;1.43;;;1.33;;
4311;SDS011;2169;49.086;9.284;2022-08-01T00:15:53;1.60;;;1.50;;
4311;SDS011;2169;49.086;9.284;2022-08-01T00:18:20;1.20;;;1.10;;
4311;SDS011;2169;49.086;9.284;2022-08-01T00:20:47;1.90;;;1.70;;
4311;SDS011;2169;49.086;9.284;2022-08-01T00:23:15;2.40;;;1.30;;
4311;SDS011;2169;49.086;9.284;2022-08-01T00:25:42;1.97;;;1.47;;
4311;SDS011;2169;49.086;9.284;2022-08-01T00:28:09;1.23;;;1.13;;
4311;SDS011;2169;49.086;9.284;2022-08-01T00:30:36;1.30;;;1.20;;
4311;SDS011;2169;49.086;9.284;2022-08-01T00:33:03;3.17;;;2.40;;
4311;SDS011;2169;49.086;9.284;2022-08-01T00:35:30;1.33;;;0.90;;
4311;SDS011;2169;49.086;9.284;2022-08-01T00:37:56;2.60;;;1.30;;
4311;SDS011;2169;49.086;9.284;2022-08-01T00:40:24;2.83;;;1.30;;
4311;SDS011;2169;49.086;9.284;2022-08-01T00:42:51;1.17;;;1.00;;
4311;SDS011;2169;49.086;9.284;2022-08-01T00:45:18;1.20;;;1.20;;
4311;SDS011;2169;49.086;9.284;2022-08-01T00:47:45;2.97;;;1.47;;
4311;SDS011;2169;49.086;9.284;2022-08-01T00:50:12;2.13;;;1.13;;
4311;SDS011;2169;49.086;9.284;2022-08-01T00:52:39;1.13;;;1.13;;
4311;SDS011;2169;49.086;9.284;2022-08-01T00:55:07;1.33;;;1.20;;
4311;SDS011;2169;49.086;9.284;2022-08-01T00:57:36;3.00;;;1.50;;
4311;SDS011;2169;49.086;9.284;2022-08-01T01:00:03;1.50;;;1.40;;
4311;SDS011;2169;49.086;9.284;2022-08-01T01:02:32;1.67;;;1.57;;
4311;SDS011;2169;49.086;9.284;2022-08-01T01:04:59;1.43;;;1.33;;
4311;SDS011;2169;49.086;9.284;2022-08-01T01:07:28;1.60;;;1.50;;
4311;SDS011;2169;49.086;9.284;2022-08-01T01:10:00;1.47;;;1.37;;
4311;SDS011;2169;49.086;9.284;2022-08-01T01:12:31;1.20;;;1.10;;
4311;SDS011;2169;49.086;9.284;2022-08-01T01:15:04;2.17;;;1.60;;
4311;SDS011;2169;49.086;9.284;2022-08-01T01:17:35;1.87;;;1.30;;
4311;SDS011;2169;49.086;9.284;2022-08-01T01:20:05;2.50;;;1.70;;
4311;SDS011;2169;49.086;9.284;2022-08-01T01:22:42;1.73;;;1.63;;
4311;SDS011;2169;49.086;9.284;2022-08-01T01:25:24;4.40;;;1.67;;
4311;SDS011;2169;49.086;9.284;2022-08-01T01:28:02;2.10;;;1.40;;
4311;SDS011;2169;49.086;9.284;2022-08-01T01:30:37;1.57;;;1.20;;
4311;SDS011;2169;49.086;9.284;2022-08-01T01:33:07;1.63;;;1.30;;
4311;SDS011;2169;49.086;9.284;2022-08-01T01:35:37;1.53;;;1.43;;
4311;SDS011;2169;49.086;9.284;2022-08-01T01:38:08;1.40;;;1.30;;
4311;SDS011;2169;49.086;9.284;2022-08-01T01:40:40;2.43;;;2.20;;
4311;SDS011;2169;49.086;9.284;2022-08-01T01:43:10;1.77;;;1.70;;
4311;SDS011;2169;49.086;9.284;2022-08-01T01:45:39;3.30;;;1.57;;
4311;SDS011;2169;49.086;9.284;2022-08-01T01:48:07;1.60;;;1.50;;
4311;SDS011;2169;49.086;9.284;2022-08-01T01:50:36;1.10;;;1.10;;
4311;SDS011;2169;49.086;9.284;2022-08-01T01:53:04;2.53;;;1.93;;
4311;SDS011;2169;49.086;9.284;2022-08-01T01:55:33;2.70;;;1.20;;
4311;SDS011;2169;49.086;9.284;2022-08-01T01:58:03;2.30;;;2.10;;
4311;SDS011;2169;49.086;9.284;2022-08-01T02:00:32;1.93;;;1.57;;
4311;SDS011;2169;49.086;9.284;2022-08-01T02:03:02;2.10;;;1.90;;
4311;SDS011;2169;49.086;9.284;2022-08-01T02:05:32;2.70;;;1.90;;
4311;SDS011;2169;49.086;9.284;2022-08-01T02:08:01;4.53;;;1.70;;
4311;SDS011;2169;49.086;9.284;2022-08-01T02:10:29;5.20;;;1.70;;
4311;SDS011;2169;49.086;9.284;2022-08-01T02:12:58;1.97;;;1.87;;
4311;SDS011;2169;49.086;9.284;2022-08-01T02:15:28;14.63;;;1.87;;
4311;SDS011;2169;49.086;9.284;2022-08-01T02:17:58;2.00;;;1.40;;
4311;SDS011;2169;49.086;9.284;2022-08-01T02:20:29;3.10;;;1.60;;
4311;SDS011;2169;49.086;9.284;2022-08-01T02:22:58;3.43;;;1.70;;
4311;SDS011;2169;49.086;9.284;2022-08-01T02:25:31;1.67;;;1.63;;
4311;SDS011;2169;49.086;9.284;2022-08-01T02:28:01;2.27;;;2.17;;
4311;SDS011;2169;49.086;9.284;2022-08-01T02:30:32;2.53;;;1.57;;
4311;SDS011;2169;49.086;9.284;2022-08-01T02:33:02;1.63;;;1.33;;
4311;SDS011;2169;49.086;9.284;2022-08-01T02:35:33;1.43;;;1.33;;
4311;SDS011;2169;49.086;9.284;2022-08-01T02:38:03;1.83;;;1.77;;
4311;SDS011;2169;49.086;9.284;2022-08-01T02:40:33;1.60;;;1.50;;
4311;SDS011;2169;49.086;9.284;2022-08-01T02:43:02;3.53;;;1.53;;
4311;SDS011;2169;49.086;9.284;2022-08-01T02:45:31;1.83;;;1.73;;
4311;SDS011;2169;49.086;9.284;2022-08-01T02:48:01;1.97;;;1.87;;
4311;SDS011;2169;49.086;9.284;2022-08-01T02:50:37;1.83;;;1.67;;
4311;SDS011;2169;49.086;9.284;2022-08-01T02:53:05;1.57;;;1.47;;
4311;SDS011;2169;49.086;9.284;2022-08-01T02:55:35;2.13;;;1.93;;
4311;SDS011;2169;49.086;9.284;2022-08-01T02:58:04;2.13;;;1.93;;
4311;SDS011;2169;49.086;9.284;2022-08-01T03:00:32;1.77;;;1.50;;
4311;SDS011;2169;49.086;9.284;2022-08-01T03:03:00;2.07;;;1.87;;
4311;SDS011;2169;49.086;9.284;2022-08-01T03:05:29;1.67;;;1.57;;
4311;SDS011;2169;49.086;9.284;2022-08-01T03:07:59;2.27;;;2.07;;
4311;SDS011;2169;49.086;9.284;2022-08-01T03:10:27;1.97;;;1.87;;
4311;SDS011;2169;49.086;9.284;2022-08-01T03:12:57;2.63;;;1.93;;
4311;SDS011;2169;49.086;9.284;2022-08-01T03:15:26;2.00;;;1.67;;
4311;SDS011;2169;49.086;9.284;2022-08-01T03:17:55;2.10;;;2.00;;
4311;SDS011;2169;49.086;9.284;2022-08-01T03:20:23;1.67;;;1.57;;
4311;SDS011;2169;49.086;9.284;2022-08-01T03:22:53;4.30;;;1.97;;
4311;SDS011;2169;49.086;9.284;2022-08-01T03:25:22;2.20;;;1.87;;
4311;SDS011;2169;49.086;9.284;2022-08-01T03:27:53;1.20;;;1.10;;
4311;SDS011;2169;49.086;9.284;2022-08-01T03:30:21;1.40;;;1.30;;
4311;SDS011;2169;49.086;9.284;2022-08-01T03:32:49;5.93;;;2.73;;
4311;SDS011;2169;49.086;9.284;2022-08-01T03:35:16;1.60;;;1.50;;
4311;SDS011;2169;49.086;9.284;2022-08-01T03:37:44;2.13;;;1.97;;
4311;SDS011;2169;49.086;9.284;2022-08-01T03:40:13;2.20;;;1.97;;
4311;SDS011;2169;49.086;9.284;2022-08-01T03:42:50;3.23;;;1.27;;
4311;SDS011;2169;49.086;9.284;2022-08-01T03:45:21;2.93;;;1.73;;
4311;SDS011;2169;49.086;9.284;2022-08-01T03:47:53;5.63;;;2.67;;
4311;SDS011;2169;49.086;9.284;2022-08-01T03:50:23;2.60;;;2.00;;
4311;SDS011;2169;49.086;9.284;2022-08-01T03:52:51;1.60;;;1.50;;
4311;SDS011;2169;49.086;9.284;2022-08-01T03:55:20;2.50;;;1.90;;
4311;SDS011;2169;49.086;9.284;2022-08-01T03:57:49;3.30;;;2.27;;
4311;SDS011;2169;49.086;9.284;2022-08-01T04:00:17;2.50;;;1.57;;
4311;SDS011;2169;49.086;9.284;2022-08-01T04:02:45;3.33;;;2.03;;
4311;SDS011;2169;49.086;9.284;2022-08-01T04:05:12;2.03;;;1.93;;
4311;SDS011;2169;49.086;9.284;2022-08-01T04:07:39;2.07;;;1.83;;
4311;SDS011;2169;49.086;9.284;2022-08-01T04:10:11;2.43;;;2.30;;
4311;SDS011;2169;49.086;9.284;2022-08-01T04:12:38;3.87;;;2.40;;
4311;SDS011;2169;49.086;9.284;2022-08-01T04:15:07;2.40;;;2.20;;
4311;SDS011;2169;49.086;9.284;2022-08-01T04:17:34;4.50;;;2.43;;
4311;SDS011;2169;49.086;9.284;2022-08-01T04:20:01;2.20;;;2.00;;
4311;SDS011;2169;49.086;9.284;2022-08-01T04:22:28;1.87;;;1.77;;
4311;SDS011;2169;49.086;9.284;2022-08-01T04:24:56;3.10;;;2.43;;
4311;SDS011;2169;49.086;9.284;2022-08-01T04:27:25;3.80;;;2.50;;
4311;SDS011;2169;49.086;9.284;2022-08-01T04:29:56;8.07;;;2.50;;
4311;SDS011;2169;49.086;9.284;2022-08-01T04:32:26;1.60;;;1.50;;
4311;SDS011;2169;49.086;9.284;2022-08-01T04:34:57;1.60;;;1.50;;
4311;SDS011;2169;49.086;9.284;2022-08-01T04:37:26;1.97;;;1.87;;
4311;SDS011;2169;49.086;9.284;2022-08-01T04:39:55;2.07;;;1.97;;
4311;SDS011;2169;49.086;9.284;2022-08-01T04:42:23;4.30;;;2.47;;
4311;SDS011;2169;49.086;9.284;2022-08-01T04:44:50;2.63;;;2.03;;
4311;SDS011;2169;49.086;9.284;2022-08-01T04:47:17;1.83;;;1.50;;
4311;SDS011;2169;49.086;9.284;2022-08-01T04:49:47;1.90;;;1.77;;
4311;SDS011;2169;49.086;9.284;2022-08-01T04:52:14;2.03;;;1.93;;
4311;SDS011;2169;49.086;9.284;2022-08-01T04:54:42;2.23;;;1.70;;
4311;SDS011;2169;49.086;9.284;2022-08-01T04:57:11;6.93;;;1.90;;
4311;SDS011;2169;49.086;9.284;2022-08-01T04:59:38;2.60;;;2.50;;
4311;SDS011;2169;49.086;9.284;2022-08-01T05:02:09;1.93;;;1.83;;
4311;SDS011;2169;49.086;9.284;2022-08-01T05:04:37;1.77;;;1.60;;
4311;SDS011;2169;49.086;9.284;2022-08-01T05:07:07;4.47;;;2.17;;
4311;SDS011;2169;49.086;9.284;2022-08-01T05:09:34;4.00;;;3.73;;
4311;SDS011;2169;49.086;9.284;2022-08-01T05:12:03;2.37;;;2.17;;
4311;SDS011;2169;49.086;9.284;2022-08-01T05:14:31;2.33;;;2.17;;
4311;SDS011;2169;49.086;9.284;2022-08-01T05:16:58;3.43;;;2.57;;
4311;SDS011;2169;49.086;9.284;2022-08-01T05:19:28;2.00;;;1.90;;
4311;SDS011;2169;49.086;9.284;2022-08-01T05:21:55;1.93;;;1.83;;
4311;SDS011;2169;49.086;9.284;2022-08-01T05:24:23;2.37;;;2.17;;
4311;SDS011;2169;49.086;9.284;2022-08-01T05:26:50;3.57;;;2.93;;
4311;SDS011;2169;49.086;9.284;2022-08-01T05:29:17;2.70;;;2.10;;
4311;SDS011;2169;49.086;9.284;2022-08-01T05:31:43;1.80;;;1.70;;
4311;SDS011;2169;49.086;9.284;2022-08-01T05:34:10;2.67;;;2.30;;
4311;SDS011;2169;49.086;9.284;2022-08-01T05:36:37;2.50;;;2.30;;
4311;SDS011;2169;49.086;9.284;2022-08-01T05:39:04;5.13;;;2.10;;
4311;SDS011;2169;49.086;9.284;2022-08-01T05:41:32;3.23;;;2.30;;
4311;SDS011;2169;49.086;9.284;2022-08-01T05:43:59;1.63;;;1.53;;
4311;SDS011;2169;49.086;9.284;2022-08-01T05:46:26;9.43;;;1.70;;
4311;SDS011;2169;49.086;9.284;2022-08-01T05:48:53;14.70;;;1.80;;
4311;SDS011;2169;49.086;9.284;2022-08-01T05:51:19;1.70;;;1.60;;
4311;SDS011;2169;49.086;9.284;2022-08-01T05:53:46;2.07;;;1.97;;
4311;SDS011;2169;49.086;9.284;2022-08-01T05:56:13;3.40;;;3.10;;
4311;SDS011;2169;49.086;9.284;2022-08-01T05:58:41;3.83;;;1.53;;
4311;SDS011;2169;49.086;9.284;2022-08-01T06:01:08;7.43;;;1.70;;
4311;SDS011;2169;49.086;9.284;2022-08-01T06:03:35;6.50;;;1.43;;
4311;SDS011;2169;49.086;9.284;2022-08-01T06:06:02;1.40;;;1.30;;
4311;SDS011;2169;49.086;9.284;2022-08-01T06:08:29;1.73;;;1.63;;
4311;SDS011;2169;49.086;9.284;2022-08-01T06:10:57;3.63;;;1.13;;
4311;SDS011;2169;49.086;9.284;2022-08-01T06:13:24;1.33;;;1.23;;
4311;SDS011;2169;49.086;9.284;2022-08-01T06:15:54;1.40;;;1.30;;
4311;SDS011;2169;49.086;9.284;2022-08-01T06:18:21;1.47;;;1.30;;
4311;SDS011;2169;49.086;9.284;2022-08-01T06:20:48;0.80;;;0.80;;
4311;SDS011;2169;49.086;9.284;2022-08-01T06:23:15;3.00;;;1.43;;
4311;SDS011;2169;49.086;9.284;2022-08-01T06:25:42;1.20;;;1.20;;
4311;SDS011;2169;49.086;9.284;2022-08-01T06:28:09;4.53;;;1.37;;
4311;SDS011;2169;49.086;9.284;2022-08-01T06:30:35;1.30;;;1.30;;
4311;SDS011;2169;49.086;9.284;2022-08-01T06:33:04;1.37;;;1.27;;
4311;SDS011;2169;49.086;9.284;2022-08-01T06:35:31;1.70;;;1.33;;
4311;SDS011;2169;49.086;9.284;2022-08-01T06:37:57;0.93;;;0.90;;
4311;SDS011;2169;49.086;9.284;2022-08-01T06:40:24;3.70;;;0.90;;
4311;SDS011;2169;49.086;9.284;2022-08-01T06:42:51;2.30;;;1.00;;
4311;SDS011;2169;49.086;9.284;2022-08-01T06:45:18;0.93;;;0.90;;
4311;SDS011;2169;49.086;9.284;2022-08-01T06:47:47;1.10;;;1.10;;
4311;SDS011;2169;49.086;9.284;2022-08-01T06:50:16;1.03;;;1.03;;
4311;SDS011;2169;49.086;9.284;2022-08-01T06:52:43;1.33;;;0.80;;
4311;SDS011;2169;49.086;9.284;2022-08-01T06:55:10;2.33;;;0.90;;
4311;SDS011;2169;49.086;9.284;2022-08-01T06:57:42;6.43;;;1.10;;
4311;SDS011;2169;49.086;9.284;2022-08-01T07:00:12;2.27;;;1.10;;
4311;SDS011;2169;49.086;9.284;2022-08-01T07:02:41;0.80;;;0.80;;
4311;SDS011;2169;49.086;9.284;2022-08-01T07:05:08;1.90;;;1.03;;
4311;SDS011;2169;49.086;9.284;2022-08-01T07:07:37;4.80;;;1.10;;
4311;SDS011;2169;49.086;9.284;2022-08-01T07:10:04;0.90;;;0.67;;
4311;SDS011;2169;49.086;9.284;2022-08-01T07:12:31;0.80;;;0.80;;
4311;SDS011;2169;49.086;9.284;2022-08-01T07:14:58;2.77;;;0.97;;
4311;SDS011;2169;49.086;9.284;2022-08-01T07:17:25;0.93;;;0.80;;
4311;SDS011;2169;49.086;9.284;2022-08-01T07:19:52;0.90;;;0.90;;
4311;SDS011;2169;49.086;9.284;2022-08-01T07:22:19;0.60;;;0.60;;
4311;SDS011;2169;49.086;9.284;2022-08-01T07:24:48;0.77;;;0.70;;
4311;SDS011;2169;49.086;9.284;2022-08-01T07:27:14;0.80;;;0.80;;
4311;SDS011;2169;49.086;9.284;2022-08-01T07:29:41;21.77;;;1.10;;
4311;SDS011;2169;49.086;9.284;2022-08-01T07:32:08;2.47;;;1.37;;
4311;SDS011;2169;49.086;9.284;2022-08-01T07:34:35;2.10;;;0.90;;
4311;SDS011;2169;49.086;9.284;2022-08-01T07:37:02;3.87;;;0.90;;
4311;SDS011;2169;49.086;9.284;2022-08-01T07:39:29;2.07;;;0.80;;
4311;SDS011;2169;49.086;9.284;2022-08-01T07:41:57;0.67;;;0.67;;
4311;SDS011;2169;49.086;9.284;2022-08-01T07:44:23;2.97;;;0.80;;
4311;SDS011;2169;49.086;9.284;2022-08-01T07:46:50;2.70;;;0.70;;
4311;SDS011;2169;49.086;9.284;2022-08-01T07:49:17;0.63;;;0.60;;
4311;SDS011;2169;49.086;9.284;2022-08-01T07:51:44;0.93;;;0.50;;
4311;SDS011;2169;49.086;9.284;2022-08-01T07:54:11;0.93;;;0.93;;
4311;SDS011;2169;49.086;9.284;2022-08-01T07:56:38;0.57;;;0.57;;
4311;SDS011;2169;49.086;9.284;2022-08-01T07:59:06;0.60;;;0.60;;
4311;SDS011;2169;49.086;9.284;2022-08-01T08:01:32;0.60;;;0.50;;
4311;SDS011;2169;49.086;9.284;2022-08-01T08:03:59;0.60;;;0.60;;
4311;SDS011;2169;49.086;9.284;2022-08-01T08:06:26;0.67;;;0.50;;
4311;SDS011;2169;49.086;9.284;2022-08-01T08:08:53;0.60;;;0.60;;
4311;SDS011;2169;49.086;9.284;2022-08-01T08:11:19;0.70;;;0.70;;
4311;SDS011;2169;49.086;9.284;2022-08-01T08:13:46;0.60;;;0.60;;
4311;SDS011;2169;49.086;9.284;2022-08-01T08:16:14;1.23;;;0.60;;
4311;SDS011;2169;49.086;9.284;2022-08-01T08:18:41;1.23;;;0.80;;
4311;SDS011;2169;49.086;9.284;2022-08-01T08:21:08;1.20;;;0.77;;
4311;SDS011;2169;49.086;9.284;2022-08-01T08:23:36;0.60;;;0.60;;
4311;SDS011;2169;49.086;9.284;2022-08-01T08:26:20;1.47;;;0.80;;
4311;SDS011;2169;49.086;9.284;2022-08-01T08:28:48;1.23;;;0.97;;
4311;SDS011;2169;49.086;9.284;2022-08-01T08:31:16;0.70;;;0.70;;
4311;SDS011;2169;49.086;9.284;2022-08-01T08:33:43;0.97;;;0.90;;
4311;SDS011;2169;49.086;9.284;2022-08-01T08:36:10;0.60;;;0.60;;
4311;SDS011;2169;49.086;9.284;2022-08-01T08:38:37;0.60;;;0.60;;
4311;SDS011;2169;49.086;9.284;2022-08-01T08:41:04;0.60;;;0.60;;
4311;SDS011;2169;49.086;9.284;2022-08-01T08:43:31;0.60;;;0.50;;
4311;SDS011;2169;49.086;9.284;2022-08-01T08:45:58;0.60;;;0.60;;
4311;SDS011;2169;49.086;9.284;2022-08-01T08:48:28;1.00;;;0.80;;
4311;SDS011;2169;49.086;9.284;2022-08-01T08:50:55;0.53;;;0.53;;
4311;SDS011;2169;49.086;9.284;2022-08-01T08:53:25;0.60;;;0.60;;
4311;SDS011;2169;49.086;9.284;2022-08-01T08:55:52;0.70;;;0.70;;
4311;SDS011;2169;49.086;9.284;2022-08-01T08:58:20;0.90;;;0.60;;
4311;SDS011;2169;49.086;9.284;2022-08-01T09:00:48;1.13;;;1.13;;
4311;SDS011;2169;49.086;9.284;2022-08-01T09:03:15;0.53;;;0.50;;
4311;SDS011;2169;49.086;9.284;2022-08-01T09:05:43;0.97;;;0.70;;
4311;SDS011;2169;49.086;9.284;2022-08-01T09:08:10;1.70;;;0.60;;
4311;SDS011;2169;49.086;9.284;2022-08-01T09:10:38;0.60;;;0.60;;
4311;SDS011;2169;49.086;9.284;2022-08-01T09:13:05;0.70;;;0.70;;
4311;SDS011;2169;49.086;9.284;2022-08-01T09:15:42;0.70;;;0.70;;
4311;SDS011;2169;49.086;9.284;2022-08-01T09:18:26;0.50;;;0.50;;
4311;SDS011;2169;49.086;9.284;2022-08-01T09:21:08;1.53;;;0.57;;
4311;SDS011;2169;49.086;9.284;2022-08-01T09:23:41;0.93;;;0.50;;
4311;SDS011;2169;49.086;9.284;2022-08-01T09:26:09;1.60;;;0.70;;
4311;SDS011;2169;49.086;9.284;2022-08-01T09:28:37;0.57;;;0.57;;
4311;SDS011;2169;49.086;9.284;2022-08-01T09:31:08;0.90;;;0.60;;
4311;SDS011;2169;49.086;9.284;2022-08-01T09:33:49;0.80;;;0.80;;
4311;SDS011;2169;49.086;9.284;2022-08-01T09:36:18;0.53;;;0.53;;
4311;SDS011;2169;49.086;9.284;2022-08-01T09:38:46;0.60;;;0.60;;
4311;SDS011;2169;49.086;9.284;2022-08-01T09:41:13;6.40;;;0.60;;
4311;SDS011;2169;49.086;9.284;2022-08-01T09:43:40;0.97;;;0.80;;
4311;SDS011;2169;49.086;9.284;2022-08-01T09:46:15;0.50;;;0.50;;
4311;SDS011;2169;49.086;9.284;2022-08-01T09:48:54;1.30;;;0.80;;
4311;SDS011;2169;49.086;9.284;2022-08-01T09:51:34;1.67;;;0.60;;
4311;SDS011;2169;49.086;9.284;2022-08-01T09:54:02;5.03;;;0.70;;
4311;SDS011;2169;49.086;9.284;2022-08-01T09:56:35;0.67;;;0.57;;
4311;SDS011;2169;49.086;9.284;2022-08-01T09:59:04;0.93;;;0.90;;
4311;SDS011;2169;49.086;9.284;2022-08-01T10:01:41;1.93;;;0.60;;
4311;SDS011;2169;49.086;9.284;2022-08-01T10:04:10;2.80;;;1.00;;
4311;SDS011;2169;49.086;9.284;2022-08-01T10:06:40;2.57;;;0.60;;
4311;SDS011;2169;49.086;9.284;2022-08-01T10:09:09;2.53;;;0.50;;
4311;SDS011;2169;49.086;9.284;2022-08-01T10:11:37;4.87;;;0.70;;
4311;SDS011;2169;49.086;9.284;2022-08-01T10:14:06;1.20;;;1.07;;
4311;SDS011;2169;49.086;9.284;2022-08-01T10:16:34;2.77;;;0.67;;
4311;SDS011;2169;49.086;9.284;2022-08-01T10:19:02;0.60;;;0.50;;
4311;SDS011;2169;49.086;9.284;2022-08-01T10:21:32;8.63;;;1.37;;
4311;SDS011;2169;49.086;9.284;2022-08-01T10:24:04;0.60;;;0.60;;
4311;SDS011;2169;49.086;9.284;2022-08-01T10:26:34;0.60;;;0.50;;
4311;SDS011;2169;49.086;9.284;2022-08-01T10:29:02;0.60;;;0.60;;
4311;SDS011;2169;49.086;9.284;2022-08-01T10:31:30;0.50;;;0.50;;
4311;SDS011;2169;49.086;9.284;2022-08-01T10:33:58;1.30;;;0.60;;
4311;SDS011;2169;49.086;9.284;2022-08-01T10:36:25;3.00;;;0.80;;
4311;SDS011;2169;49.086;9.284;2022-08-01T10:38:52;0.67;;;0.60;;
4311;SDS011;2169;49.086;9.284;2022-08-01T10:41:21;0.60;;;0.60;;
4311;SDS011;2169;49.086;9.284;2022-08-01T10:43:50;0.60;;;0.60;;
4311;SDS011;2169;49.086;9.284;2022-08-01T10:46:18;1.70;;;0.57;;
4311;SDS011;2169;49.086;9.284;2022-08-01T10:48:47;0.60;;;0.60;;
4311;SDS011;2169;49.086;9.284;2022-08-01T10:51:20;0.60;;;0.50;;
4311;SDS011;2169;49.086;9.284;2022-08-01T10:53:47;1.60;;;0.70;;
4311;SDS011;2169;49.086;9.284;2022-08-01T10:56:16;0.67;;;0.50;;
4311;SDS011;2169;49.086;9.284;2022-08-01T10:58:45;0.50;;;0.50;;
4311;SDS011;2169;49.086;9.284;2022-08-01T11:01:14;0.70;;;0.70;;
4311;SDS011;2169;49.086;9.284;2022-08-01T11:03:44;0.50;;;0.50;;
4311;SDS011;2169;49.086;9.284;2022-08-01T11:06:24;1.07;;;0.70;;
4311;SDS011;2169;49.086;9.284;2022-08-01T11:09:14;0.60;;;0.60;;
4311;SDS011;2169;49.086;9.284;2022-08-01T11:11:59;6.23;;;0.60;;
4311;SDS011;2169;49.086;9.284;2022-08-01T11:14:31;0.40;;;0.40;;
4311;SDS011;2169;49.086;9.284;2022-08-01T11:20:15;0.63;;;0.50;;
4311;SDS011;2169;49.086;9.284;2022-08-01T11:26:06;0.90;;;0.60;;
4311;SDS011;2169;49.086;9.284;2022-08-01T11:28:37;4.10;;;0.60;;
4311;SDS011;2169;49.086;9.284;2022-08-01T11:33:56;0.50;;;0.50;;
4311;SDS011;2169;49.086;9.284;2022-08-01T11:36:23;0.60;;;0.60;;
4311;SDS011;2169;49.086;9.284;2022-08-01T11:41:39;0.87;;;0.70;;
4311;SDS011;2169;49.086;9.284;2022-08-01T11:44:07;0.83;;;0.60;;
4311;SDS011;2169;49.086;9.284;2022-08-01T11:46:46;1.37;;;0.60;;
4311;SDS011;2169;49.086;9.284;2022-08-01T11:52:24;4.30;;;0.70;;
4311;SDS011;2169;49.086;9.284;2022-08-01T11:54:52;0.80;;;0.80;;
4311;SDS011;2169;49.086;9.284;2022-08-01T11:57:21;1.00;;;0.90;;
4311;SDS011;2169;49.086;9.284;2022-08-01T11:59:56;0.50;;;0.50;;
4311;SDS011;2169;49.086;9.284;2022-08-01T12:02:29;5.13;;;0.70;;
4311;SDS011;2169;49.086;9.284;2022-08-01T12:04:58;7.73;;;0.80;;
4311;SDS011;2169;49.086;9.284;2022-08-01T12:07:28;3.37;;;0.63;;
4311;SDS011;2169;49.086;9.284;2022-08-01T12:10:03;0.50;;;0.50;;
4311;SDS011;2169;49.086;9.284;2022-08-01T12:12:44;0.50;;;0.50;;
4311;SDS011;2169;49.086;9.284;2022-08-01T12:15:16;0.60;;;0.60;;
4311;SDS011;2169;49.086;9.284;2022-08-01T12:18:01;1.57;;;0.50;;
4311;SDS011;2169;49.086;9.284;2022-08-01T12:20:37;0.50;;;0.50;;
4311;SDS011;2169;49.086;9.284;2022-08-01T12:23:07;0.50;;;0.50;;
4311;SDS011;2169;49.086;9.284;2022-08-01T12:25:35;0.40;;;0.40;;
4311;SDS011;2169;49.086;9.284;2022-08-01T12:28:05;0.80;;;0.80;;
4311;SDS011;2169;49.086;9.284;2022-08-01T12:30:34;1.30;;;1.03;;
4311;SDS011;2169;49.086;9.284;2022-08-01T12:33:03;0.70;;;0.70;;
4311;SDS011;2169;49.086;9.284;2022-08-01T12:35:32;1.07;;;0.70;;
4311;SDS011;2169;49.086;9.284;2022-08-01T12:38:03;0.60;;;0.60;;
4311;SDS011;2169;49.086;9.284;2022-08-01T12:40:35;0.67;;;0.60;;
4311;SDS011;2169;49.086;9.284;2022-08-01T12:43:06;0.40;;;0.40;;
4311;SDS011;2169;49.086;9.284;2022-08-01T12:45:34;0.50;;;0.50;;
4311;SDS011;2169;49.086;9.284;2022-08-01T12:48:12;0.70;;;0.50;;
4311;SDS011;2169;49.086;9.284;2022-08-01T12:50:53;2.20;;;0.60;;
4311;SDS011;2169;49.086;9.284;2022-08-01T12:53:22;1.30;;;0.70;;
4311;SDS011;2169;49.086;9.284;2022-08-01T12:55:50;0.50;;;0.50;;
4311;SDS011;2169;49.086;9.284;2022-08-01T12:58:18;0.80;;;0.60;;
4311;SDS011;2169;49.086;9.284;2022-08-01T13:00:46;0.60;;;0.60;;
4311;SDS011;2169;49.086;9.284;2022-08-01T13:03:17;2.60;;;1.80;;
4311;SDS011;2169;49.086;9.284;2022-08-01T13:05:46;0.70;;;0.70;;
4311;SDS011;2169;49.086;9.284;2022-08-01T13:08:16;4.83;;;2.20;;
4311;SDS011;2169;49.086;9.284;2022-08-01T13:10:45;0.60;;;0.60;;
4311;SDS011;2169;49.086;9.284;2022-08-01T13:13:15;0.60;;;0.60;;
4311;SDS011;2169;49.086;9.284;2022-08-01T13:15:45;1.80;;;0.60;;
4311;SDS011;2169;49.086;9.284;2022-08-01T13:18:26;1.00;;;0.60;;
4311;SDS011;2169;49.086;9.284;2022-08-01T13:21:08;1.10;;;0.60;;
4311;SDS011;2169;49.086;9.284;2022-08-01T13:23:36;6.00;;;1.30;;
4311;SDS011;2169;49.086;9.284;2022-08-01T13:26:42;2.87;;;1.13;;
4311;SDS011;2169;49.086;9.284;2022-08-01T13:29:12;2.17;;;1.10;;
4311;SDS011;2169;49.086;9.284;2022-08-01T13:31:41;0.80;;;0.60;;
4311;SDS011;2169;49.086;9.284;2022-08-01T13:34:12;0.50;;;0.50;;
4311;SDS011;2169;49.086;9.284;2022-08-01T13:36:46;2.50;;;0.50;;
4311;SDS011;2169;49.086;9.284;2022-08-01T13:39:19;3.33;;;0.63;;
4311;SDS011;2169;49.086;9.284;2022-08-01T13:42:16;1.33;;;0.70;;
4311;SDS011;2169;49.086;9.284;2022-08-01T13:44:48;7.63;;;0.90;;
4311;SDS011;2169;49.086;9.284;2022-08-01T13:47:15;0.90;;;0.90;;
4311;SDS011;2169;49.086;9.284;2022-08-01T13:49:43;0.40;;;0.40;;
4311;SDS011;2169;49.086;9.284;2022-08-01T13:52:10;1.80;;;0.70;;
4311;SDS011;2169;49.086;9.284;2022-08-01T13:54:41;0.90;;;0.60;;
4311;SDS011;2169;49.086;9.284;2022-08-01T13:57:20;0.50;;;0.50;;
4311;SDS011;2169;49.086;9.284;2022-08-01T13:59:47;0.63;;;0.60;;
4311;SDS011;2169;49.086;9.284;2022-08-01T14:02:14;1.17;;;0.60;;
4311;SDS011;2169;49.086;9.284;2022-08-01T14:04:40;0.63;;;0.63;;
4311;SDS011;2169;49.086;9.284;2022-08-01T14:07:09;0.63;;;0.63;;
4311;SDS011;2169;49.086;9.284;2022-08-01T14:09:36;0.63;;;0.63;;
4311;SDS011;2169;49.086;9.284;2022-08-01T14:12:03;1.63;;;1.53;;
4311;SDS011;2169;49.086;9.284;2022-08-01T14:14:30;2.43;;;1.20;;
4311;SDS011;2169;49.086;9.284;2022-08-01T14:16:57;1.07;;;0.60;;
4311;SDS011;2169;49.086;9.284;2022-08-01T14:19:27;0.53;;;0.53;;
4311;SDS011;2169;49.086;9.284;2022-08-01T14:21:57;0.60;;;0.60;;
4311;SDS011;2169;49.086;9.284;2022-08-01T14:24:25;3.07;;;0.40;;
4311;SDS011;2169;49.086;9.284;2022-08-01T14:26:52;0.60;;;0.60;;
4311;SDS011;2169;49.086;9.284;2022-08-01T14:29:19;0.60;;;0.60;;
4311;SDS011;2169;49.086;9.284;2022-08-01T14:31:51;3.70;;;0.80;;
4311;SDS011;2169;49.086;9.284;2022-08-01T14:34:19;4.00;;;1.87;;
4311;SDS011;2169;49.086;9.284;2022-08-01T14:36:46;0.60;;;0.60;;
4311;SDS011;2169;49.086;9.284;2022-08-01T14:39:13;1.73;;;0.60;;
4311;SDS011;2169;49.086;9.284;2022-08-01T14:41:51;0.60;;;0.60;;
4311;SDS011;2169;49.086;9.284;2022-08-01T14:44:20;6.83;;;1.53;;
4311;SDS011;2169;49.086;9.284;2022-08-01T14:47:01;0.50;;;0.50;;
4311;SDS011;2169;49.086;9.284;2022-08-01T14:49:28;5.00;;;1.00;;
4311;SDS011;2169;49.086;9.284;2022-08-01T14:51:55;1.03;;;0.70;;
4311;SDS011;2169;49.086;9.284;2022-08-01T14:54:25;0.60;;;0.40;;
4311;SDS011;2169;49.086;9.284;2022-08-01T14:56:53;0.57;;;0.57;;
4311;SDS011;2169;49.086;9.284;2022-08-01T14:59:20;0.60;;;0.60;;
4311;SDS011;2169;49.086;9.284;2022-08-01T15:01:47;1.73;;;0.50;;
4311;SDS011;2169;49.086;9.284;2022-08-01T15:04:20;0.50;;;0.50;;
4311;SDS011;2169;49.086;9.284;2022-08-01T15:06:50;0.57;;;0.53;;
4311;SDS011;2169;49.086;9.284;2022-08-01T15:09:21;1.07;;;0.60;;
4311;SDS011;2169;49.086;9.284;2022-08-01T15:11:49;1.13;;;0.60;;
4311;SDS011;2169;49.086;9.284;2022-08-01T15:14:31;0.70;;;0.70;;
4311;SDS011;2169;49.086;9.284;2022-08-01T15:17:17;1.20;;;0.50;;
4311;SDS011;2169;49.086;9.284;2022-08-01T15:19:46;3.40;;;0.70;;
4311;SDS011;2169;49.086;9.284;2022-08-01T15:22:22;0.60;;;0.60;;
4311;SDS011;2169;49.086;9.284;2022-08-01T15:24:52;4.57;;;0.50;;
4311;SDS011;2169;49.086;9.284;2022-08-01T15:27:24;3.37;;;0.60;;
4311;SDS011;2169;49.086;9.284;2022-08-01T15:29:53;3.27;;;0.60;;
4311;SDS011;2169;49.086;9.284;2022-08-01T15:32:29;1.23;;;0.70;;
4311;SDS011;2169;49.086;9.284;2022-08-01T15:34:56;0.50;;;0.50;;
4311;SDS011;2169;49.086;9.284;2022-08-01T15:37:32;1.80;;;1.60;;
4311;SDS011;2169;49.086;9.284;2022-08-01T15:39:59;1.70;;;0.63;;
4311;SDS011;2169;49.086;9.284;2022-08-01T15:42:26;2.00;;;0.70;;
4311;SDS011;2169;49.086;9.284;2022-08-01T15:44:55;6.10;;;1.83;;